createdAt,value
2019-03-20T00:00:00.383Z,102622.55
2019-03-20T00:05:07.066Z,102624.84
2019-03-20T00:10:12.535Z,102636.03
2019-03-20T00:15:17.858Z,102635.91
2019-03-20T00:20:22.959Z,102644.92
2019-03-20T00:25:28.085Z,102636.70
2019-03-20T00:30:33.504Z,102635.54
2019-03-20T00:35:38.579Z,102638.90
2019-03-20T00:40:43.720Z,102628.73
2019-03-20T00:45:48.907Z,102638.48
2019-03-20T00:50:54.032Z,102646.73
2019-03-20T00:55:59.209Z,102652.63
2019-03-20T01:01:04.432Z,102646.08
2019-03-20T01:06:09.469Z,102650.56
2019-03-20T01:11:14.558Z,102655.04
2019-03-20T01:16:19.714Z,102648.36
2019-03-20T01:21:25.613Z,102657.77
2019-03-20T01:26:30.740Z,102663.00
2019-03-20T01:31:35.867Z,102673.53
2019-03-20T01:36:41.111Z,102667.44
2019-03-20T01:41:46.293Z,102660.08
2019-03-20T01:46:51.357Z,102668.34
2019-03-20T01:51:56.503Z,102665.52
2019-03-20T01:57:01.537Z,102673.06
2019-03-20T02:02:06.689Z,102664.56
2019-03-20T02:07:11.857Z,102665.45
2019-03-20T02:12:16.940Z,102658.36
2019-03-20T02:17:21.988Z,102660.63
2019-03-20T02:22:27.380Z,102661.67
2019-03-20T02:27:32.477Z,102665.78
2019-03-20T02:32:37.811Z,102664.73
2019-03-20T02:37:43.039Z,102670.67
2019-03-20T02:42:48.080Z,102663.02
2019-03-20T02:47:53.239Z,102660.08
2019-03-20T02:52:59.386Z,102666.08
2019-03-20T02:58:04.668Z,102659.53
2019-03-20T03:03:09.870Z,102660.56
2019-03-20T03:08:14.969Z,102673.13
2019-03-20T03:13:20.037Z,102675.80
2019-03-20T03:18:25.092Z,102684.19
2019-03-20T03:23:30.271Z,102680.22
2019-03-20T03:28:35.373Z,102686.70
2019-03-20T03:33:40.835Z,102705.50
2019-03-20T03:38:45.948Z,102697.84
2019-03-20T03:43:51.179Z,102705.39
2019-03-20T03:48:56.256Z,102709.11
2019-03-20T03:54:01.411Z,102706.04
2019-03-20T03:59:06.523Z,102707.95
2019-03-20T04:04:11.574Z,102716.16
2019-03-20T04:09:16.729Z,102718.47
2019-03-20T04:14:21.763Z,102727.46
2019-03-20T04:19:26.826Z,102719.70
2019-03-20T04:24:31.903Z,102726.77
2019-03-20T04:29:37.025Z,102718.28
2019-03-20T04:34:42.319Z,102704.09
2019-03-20T04:39:47.365Z,102704.14
2019-03-20T04:44:52.615Z,102707.16
2019-03-20T04:49:57.733Z,102703.30
2019-03-20T04:55:02.897Z,102716.70
2019-03-20T05:00:19.036Z,102727.77
2019-03-20T05:05:24.086Z,102732.01
2019-03-20T05:10:29.350Z,102738.99
2019-03-20T05:15:34.442Z,102751.23
2019-03-20T05:20:39.582Z,102759.61
2019-03-20T05:25:44.692Z,102761.70
2019-03-20T05:30:49.808Z,102765.75
2019-03-20T05:35:56.783Z,102771.83
2019-03-20T05:41:01.822Z,102771.50
2019-03-20T05:46:06.961Z,102778.86
2019-03-20T05:51:12.184Z,102784.55
2019-03-20T05:56:17.299Z,102777.19
2019-03-20T06:01:22.475Z,102785.77
2019-03-20T06:06:27.673Z,102793.91
2019-03-20T06:11:32.853Z,102802.43
2019-03-20T06:16:38.915Z,102800.03
2019-03-20T06:21:44.084Z,102812.45
2019-03-20T06:26:49.155Z,102810.95
2019-03-20T06:31:54.287Z,102813.73
2019-03-20T06:36:59.763Z,102810.94
2019-03-20T06:42:05.295Z,102819.83
2019-03-20T06:47:10.419Z,102821.05
2019-03-20T06:52:15.507Z,102823.90
2019-03-20T06:57:20.610Z,102822.26
2019-03-20T07:02:25.488Z,102818.04
2019-03-20T07:07:43.466Z,102822.68
2019-03-20T07:12:40.366Z,102823.55
2019-03-20T07:17:45.448Z,102819.91
2019-03-20T07:22:50.560Z,102820.16
2019-03-20T07:27:55.624Z,102843.14
2019-03-20T07:33:00.740Z,102839.13
2019-03-20T07:38:06.112Z,102846.95
2019-03-20T07:43:11.154Z,102853.27
2019-03-20T07:48:21.984Z,102854.48
2019-03-20T07:53:23.183Z,102858.53
2019-03-20T07:58:28.321Z,102857.51
2019-03-20T08:03:33.646Z,102847.58
2019-03-20T08:08:38.696Z,102839.17
2019-03-20T08:13:43.895Z,102853.28
2019-03-20T08:18:48.949Z,102853.64
2019-03-20T08:23:54.176Z,102851.86
2019-03-20T08:28:59.195Z,102841.86
2019-03-20T08:34:04.931Z,102840.45
2019-03-20T08:39:10.020Z,102849.08
2019-03-20T08:44:15.190Z,102841.13
2019-03-20T08:49:20.288Z,102830.97
2019-03-20T08:54:25.451Z,102818.69
2019-03-20T08:59:30.579Z,102827.33
2019-03-20T09:04:35.915Z,102832.09
2019-03-20T09:09:40.989Z,102841.14
2019-03-20T09:14:46.080Z,102822.25
2019-03-20T09:19:51.174Z,102821.48
2019-03-20T09:24:56.213Z,102819.86
2019-03-20T09:30:01.735Z,102824.92
2019-03-20T09:35:07.417Z,102827.70
2019-03-20T09:40:19.772Z,102823.30
2019-03-20T09:45:25.567Z,102819.36
2019-03-20T09:50:31.164Z,102830.34
2019-03-20T09:55:36.338Z,102804.50
2019-03-20T10:00:41.539Z,102788.11
2019-03-20T10:05:46.699Z,102769.39
2019-03-20T10:10:51.862Z,102774.23
2019-03-20T10:15:57.116Z,102766.07
2019-03-20T10:21:02.307Z,102769.05
2019-03-20T10:26:07.772Z,102766.23
2019-03-20T10:31:12.914Z,102781.03
2019-03-20T10:36:17.990Z,102770.36
2019-03-20T10:41:24.344Z,102780.53
2019-03-20T10:46:29.610Z,102780.08
2019-03-20T10:51:34.818Z,102772.69
2019-03-20T10:56:40.336Z,102762.30
2019-03-20T11:01:45.751Z,102761.41
2019-03-20T11:06:50.969Z,102749.42
2019-03-20T11:11:57.762Z,102744.78
2019-03-20T11:17:02.887Z,102747.33
2019-03-20T11:22:18.382Z,102736.31
2019-03-20T11:27:15.837Z,102733.62
2019-03-20T11:32:20.934Z,102731.87
2019-03-20T11:37:26.415Z,102729.66
2019-03-20T11:42:32.034Z,102727.65
2019-03-20T11:47:37.162Z,102701.09
2019-03-20T11:52:42.418Z,102704.70
2019-03-20T11:57:47.637Z,102704.20
2019-03-20T12:02:52.869Z,102702.95
2019-03-20T12:07:58.150Z,102688.83
2019-03-20T12:13:04.658Z,102671.20
2019-03-20T12:18:09.797Z,102670.66
2019-03-20T12:23:14.866Z,102672.79
2019-03-20T12:28:20.415Z,102665.36
2019-03-20T12:33:25.595Z,102663.41
2019-03-20T12:38:31.908Z,102659.09
2019-03-20T12:43:37.441Z,102652.30
2019-03-20T12:48:43.009Z,102653.20
2019-03-20T12:53:48.251Z,102653.09
2019-03-20T12:58:53.413Z,102639.23
2019-03-20T13:03:58.806Z,102637.44
2019-03-20T13:09:07.356Z,102639.98
2019-03-20T13:14:12.581Z,102622.41
2019-03-20T13:19:17.774Z,102617.91
2019-03-20T13:24:22.981Z,102638.22
2019-03-20T13:29:28.091Z,102633.25
2019-03-20T13:34:33.322Z,102632.98
2019-03-20T13:39:38.472Z,102638.05
2019-03-20T13:44:43.821Z,102616.16
2019-03-20T13:49:49.145Z,102621.50
2019-03-20T13:54:54.259Z,102637.61
2019-03-20T13:59:59.425Z,102616.81
2019-03-20T14:05:06.213Z,102623.58
2019-03-20T14:10:24.289Z,102617.04
2019-03-20T14:15:22.220Z,102619.00
2019-03-20T14:20:29.370Z,102612.06
2019-03-20T14:25:34.609Z,102610.35
2019-03-20T14:30:39.903Z,102609.35
2019-03-20T14:35:45.261Z,102603.48
2019-03-20T14:40:50.429Z,102602.22
2019-03-20T14:45:55.699Z,102604.19
2019-03-20T14:51:01.129Z,102605.46
2019-03-20T14:56:06.339Z,102573.38
2019-03-20T15:01:11.533Z,102564.46
2019-03-20T15:06:16.750Z,102578.16
2019-03-20T15:11:21.966Z,102600.30
2019-03-20T15:16:27.218Z,102591.19
2019-03-20T15:21:32.265Z,102585.04
2019-03-20T15:26:37.468Z,102585.04
2019-03-20T15:31:42.649Z,102579.25
2019-03-20T15:36:48.834Z,102584.40
2019-03-20T15:41:53.876Z,102579.58
2019-03-20T15:46:59.144Z,102562.30
2019-03-20T15:52:04.370Z,102575.75
2019-03-20T15:57:09.587Z,102576.23
2019-03-20T16:02:14.715Z,102565.10
2019-03-20T16:07:19.927Z,102555.22
2019-03-20T16:12:25.121Z,102561.50
2019-03-20T16:17:30.295Z,102575.87
2019-03-20T16:22:35.433Z,102551.68
2019-03-20T16:27:40.631Z,102551.05
2019-03-20T16:32:45.944Z,102547.61
2019-03-20T16:37:51.088Z,102544.02
2019-03-20T16:42:56.371Z,102546.88
2019-03-20T16:48:01.690Z,102560.04
2019-03-20T16:53:06.944Z,102528.37
2019-03-20T16:58:12.058Z,102533.33
2019-03-20T17:03:17.263Z,102511.32
2019-03-20T17:08:23.688Z,102512.30
2019-03-20T17:13:28.805Z,102511.58
2019-03-20T17:18:33.896Z,102523.22
2019-03-20T17:23:39.102Z,102520.95
2019-03-20T17:28:44.262Z,102527.73
2019-03-20T17:33:49.485Z,102534.22
2019-03-20T17:38:54.561Z,102533.07
2019-03-20T17:43:59.641Z,102544.98
2019-03-20T17:49:05.260Z,102561.67
2019-03-20T17:54:10.485Z,102546.27
2019-03-20T17:59:15.677Z,102555.73
2019-03-20T18:04:20.791Z,102554.17
2019-03-20T18:09:25.984Z,102551.44
2019-03-20T18:14:31.108Z,102567.92
2019-03-20T18:19:36.274Z,102566.80
2019-03-20T18:24:41.374Z,102594.03
2019-03-20T18:29:46.669Z,102593.36
2019-03-20T18:34:51.854Z,102581.94
2019-03-20T18:39:57.008Z,102578.90
2019-03-20T18:45:02.082Z,102578.28
2019-03-20T18:50:10.183Z,102605.97
2019-03-20T18:55:17.461Z,102627.03
2019-03-20T19:00:27.515Z,102645.28
2019-03-20T19:05:35.745Z,102644.45
2019-03-20T19:10:41.297Z,102636.80
2019-03-20T19:15:46.492Z,102621.91
2019-03-20T19:20:51.831Z,102611.66
2019-03-20T19:25:56.985Z,102632.89
2019-03-20T19:31:02.162Z,102634.94
2019-03-20T19:36:07.443Z,102638.25
2019-03-20T19:41:12.605Z,102639.68
2019-03-20T19:46:17.799Z,102617.20
2019-03-20T19:51:22.968Z,102625.09
2019-03-20T19:56:28.220Z,102633.02
2019-03-20T20:01:33.682Z,102625.40
2019-03-20T20:06:38.810Z,102629.98
2019-03-20T20:11:44.195Z,102627.20
2019-03-20T20:16:49.270Z,102630.37
2019-03-20T20:21:54.449Z,102625.91
2019-03-20T20:26:59.633Z,102643.37
2019-03-20T20:32:04.864Z,102643.49
2019-03-20T20:37:10.068Z,102633.19
2019-03-20T20:42:15.136Z,102618.19
2019-03-20T20:47:20.377Z,102616.59
2019-03-20T20:52:25.735Z,102622.66
2019-03-20T20:57:30.871Z,102622.66
2019-03-20T21:02:35.987Z,102627.54
2019-03-20T21:07:41.155Z,102629.28
2019-03-20T21:12:55.484Z,102633.48
2019-03-20T21:17:59.268Z,102633.48
2019-03-20T21:23:38.003Z,102633.73
2019-03-20T21:29:11.827Z,102639.63
2019-03-20T21:34:22.643Z,102631.65
2019-03-20T21:39:27.716Z,102626.45
2019-03-20T21:44:47.999Z,102613.33
2019-03-20T21:49:53.088Z,102615.29
2019-03-20T21:55:18.277Z,102622.28
2019-03-20T22:00:52.006Z,102642.59
2019-03-20T22:06:06.152Z,102654.11
2019-03-20T22:11:32.318Z,102646.06
2019-03-20T22:17:09.088Z,102641.89
2019-03-20T22:22:48.841Z,102650.16
2019-03-20T22:28:08.820Z,102666.64
2019-03-20T22:33:41.960Z,102664.16
2019-03-20T22:39:06.557Z,102687.13
2019-03-20T22:44:11.688Z,102686.20
2019-03-20T22:49:25.977Z,102684.80
2019-03-20T22:54:56.980Z,102678.83
2019-03-20T23:00:02.529Z,102674.70
2019-03-20T23:05:10.845Z,102665.00
2019-03-20T23:10:18.652Z,102685.38
2019-03-20T23:15:24.092Z,102681.88
2019-03-20T23:20:29.917Z,102680.59
2019-03-20T23:25:35.018Z,102682.05
2019-03-20T23:30:40.620Z,102692.04
2019-03-20T23:35:45.780Z,102678.66
2019-03-20T23:40:50.882Z,102683.23
2019-03-20T23:45:56.398Z,102684.11
2019-03-20T23:51:05.306Z,102683.72
2019-03-20T23:56:11.760Z,102665.05
